Time;durP1;ratioP1;P1;durP2;ratioP2;P2;SDS_P1;SDS_P2;PMS_P1;PMS_P2;Temp;Humidity;BMP_temperature;BMP_pressure;BME280_temperature;BME280_humidity;BME280_pressure;Samples;Min_cycle;Max_cycle;Signal;HPM_P1;HPM_P2
2022/01/13 00:02:20;;;;;;;127.05;39.63;;;5.30;99.90;;;;;;5090979;28;20706;-70
2022/01/13 00:04:47;;;;;;;85.32;34.88;;;5.30;99.90;;;;;;5089485;28;20198;-70
2022/01/13 00:07:14;;;;;;;126.68;41.20;;;5.40;99.90;;;;;;5093361;28;20715;-71
2022/01/13 00:09:43;;;;;;;141.27;42.38;;;5.40;99.90;;;;;;5095778;28;20209;-70
2022/01/13 00:12:13;;;;;;;130.85;40.90;;;5.50;99.90;;;;;;5097038;28;20273;-71
2022/01/13 00:14:54;;;;;;;136.30;43.95;;;5.40;99.90;;;;;;5095715;28;20205;-71
2022/01/13 00:17:45;;;;;;;112.72;39.78;;;5.40;99.90;;;;;;5089028;28;20260;-70
2022/01/13 00:20:31;;;;;;;116.50;42.53;;;5.40;99.90;;;;;;5093227;28;20198;-70
2022/01/13 00:25:42;;;;;;;139.65;43.65;;;5.30;99.90;;;;;;5093839;28;20263;-70
2022/01/13 00:28:16;;;;;;;146.98;43.40;;;5.40;99.90;;;;;;5090268;28;20194;-70
2022/01/13 00:30:44;;;;;;;110.03;41.13;;;5.40;99.90;;;;;;5072954;28;20218;-70
2022/01/13 00:33:13;;;;;;;129.93;41.40;;;5.40;99.90;;;;;;5093843;28;20257;-70
2022/01/13 00:35:40;;;;;;;111.65;40.22;;;5.40;99.90;;;;;;5090304;28;20610;-71
2022/01/13 00:38:07;;;;;;;133.25;39.88;;;5.40;99.90;;;;;;5086725;28;20201;-71
2022/01/13 00:40:34;;;;;;;175.30;47.45;;;5.40;99.90;;;;;;5087473;28;20249;-71
2022/01/13 00:43:01;;;;;;;128.80;42.03;;;5.40;99.90;;;;;;5090375;28;20676;-70
2022/01/13 00:45:29;;;;;;;135.52;41.60;;;5.40;99.90;;;;;;5089795;28;20200;-70
2022/01/13 00:47:56;;;;;;;140.77;42.42;;;5.40;99.90;;;;;;5087185;28;20199;-70
2022/01/13 00:50:23;;;;;;;140.45;46.40;;;5.40;99.90;;;;;;5091998;28;20301;-70
2022/01/13 00:52:50;;;;;;;141.75;43.30;;;5.40;99.90;;;;;;5093364;28;20285;-70
2022/01/13 00:55:21;;;;;;;161.95;49.03;;;5.50;99.90;;;;;;5089222;28;20561;-70
2022/01/13 00:57:48;;;;;;;148.48;46.65;;;5.40;99.90;;;;;;5093556;28;20281;-70
2022/01/13 01:00:18;;;;;;;146.05;45.25;;;5.40;99.90;;;;;;5092545;28;20600;-71
2022/01/13 01:02:46;;;;;;;132.95;43.72;;;5.40;99.90;;;;;;5093090;28;20225;-70
2022/01/13 01:05:13;;;;;;;142.88;43.90;;;5.40;99.90;;;;;;5093211;28;20641;-70
2022/01/13 01:07:40;;;;;;;199.02;48.75;;;5.40;99.90;;;;;;5093210;28;20306;-70
2022/01/13 01:10:08;;;;;;;152.23;45.15;;;5.40;99.90;;;;;;5092560;28;20603;-70
2022/01/13 01:12:37;;;;;;;134.63;42.35;;;5.40;99.90;;;;;;5092886;28;20218;-70
2022/01/13 01:15:06;;;;;;;158.23;47.75;;;5.40;99.90;;;;;;5093100;28;20194;-71
2022/01/13 01:17:35;;;;;;;165.13;49.33;;;5.40;99.90;;;;;;5093031;28;20234;-70
2022/01/13 01:20:07;;;;;;;149.93;45.92;;;5.40;99.90;;;;;;5092044;28;20199;-71
2022/01/13 01:22:42;;;;;;;165.68;49.13;;;5.40;99.90;;;;;;5092690;28;20295;-71
2022/01/13 01:27:55;;;;;;;154.57;43.20;;;5.40;99.90;;;;;;5073399;28;20206;-70
2022/01/13 01:30:31;;;;;;;153.50;49.10;;;5.50;99.90;;;;;;5092108;28;20600;-71
2022/01/13 01:32:58;;;;;;;162.18;50.15;;;5.40;99.90;;;;;;5074651;28;20272;-71
2022/01/13 01:35:28;;;;;;;178.88;51.35;;;5.40;99.90;;;;;;5092537;28;20203;-70
2022/01/13 01:37:55;;;;;;;133.15;44.75;;;5.40;99.90;;;;;;5092944;28;20199;-70
2022/01/13 01:40:24;;;;;;;141.23;49.67;;;5.40;99.90;;;;;;5091739;28;20261;-70
2022/01/13 01:42:51;;;;;;;146.93;48.38;;;5.40;99.90;;;;;;5092792;28;20253;-70
2022/01/13 01:45:19;;;;;;;175.20;49.20;;;5.40;99.90;;;;;;5087621;28;20203;-71
2022/01/13 01:47:50;;;;;;;134.88;44.72;;;5.40;99.90;;;;;;5085491;28;20202;-70
2022/01/13 01:50:20;;;;;;;224.25;58.60;;;5.40;99.90;;;;;;5091580;28;20209;-70
2022/01/13 01:52:50;;;;;;;178.88;52.25;;;5.40;99.90;;;;;;5092497;28;20195;-71
2022/01/13 01:55:18;;;;;;;189.82;53.33;;;5.40;99.90;;;;;;5084287;28;20546;-71
2022/01/13 01:57:48;;;;;;;166.80;48.28;;;5.40;99.90;;;;;;5092276;28;20194;-70
2022/01/13 02:00:18;;;;;;;176.77;49.80;;;5.50;99.90;;;;;;5111320;28;20206;-70
2022/01/13 02:02:45;;;;;;;146.85;45.95;;;5.40;99.90;;;;;;5103629;28;20701;-71
2022/01/13 02:05:12;;;;;;;167.35;47.00;;;5.40;99.90;;;;;;5104924;28;20649;-70
2022/01/13 02:07:40;;;;;;;191.55;55.55;;;5.40;99.90;;;;;;5103971;28;20206;-70
2022/01/13 02:10:09;;;;;;;205.45;53.03;;;5.40;99.90;;;;;;5093695;28;20229;-70
2022/01/13 02:12:41;;;;;;;198.57;54.75;;;5.40;99.90;;;;;;5084273;28;20226;-70
2022/01/13 02:18:01;;;;;;;163.07;49.33;;;5.40;99.90;;;;;;5071515;28;20193;-70
2022/01/13 02:20:50;;;;;;;201.48;56.28;;;5.40;99.90;;;;;;5085879;28;20704;-70
2022/01/13 02:23:44;;;;;;;182.82;49.05;;;5.40;99.90;;;;;;5090171;28;20581;-71
2022/01/13 02:26:12;;;;;;;203.95;51.60;;;5.40;99.90;;;;;;5067737;28;20214;-71
2022/01/13 02:28:39;;;;;;;210.32;55.83;;;5.40;99.90;;;;;;5094276;28;20193;-71
2022/01/13 02:31:06;;;;;;;161.98;50.80;;;5.30;99.90;;;;;;5084219;28;20211;-70
2022/01/13 02:33:34;;;;;;;197.43;56.55;;;5.40;99.90;;;;;;5092129;28;20206;-70
2022/01/13 02:36:02;;;;;;;175.43;52.42;;;5.40;99.90;;;;;;5096191;28;20218;-70
2022/01/13 02:38:29;;;;;;;177.63;51.42;;;5.40;99.90;;;;;;5094433;28;20201;-70
2022/01/13 02:40:58;;;;;;;212.02;52.65;;;5.40;99.90;;;;;;5085768;28;20248;-70
2022/01/13 02:43:26;;;;;;;162.45;47.15;;;5.50;99.90;;;;;;5094856;28;20194;-71
2022/01/13 02:46:06;;;;;;;156.13;46.53;;;5.40;99.90;;;;;;5092124;28;20517;-70
2022/01/13 02:48:35;;;;;;;177.02;46.45;;;5.40;99.90;;;;;;5085956;28;20219;-70
2022/01/13 02:51:04;;;;;;;193.57;50.83;;;5.40;99.90;;;;;;5089643;28;20218;-70
2022/01/13 02:53:31;;;;;;;170.45;46.20;;;5.40;99.90;;;;;;5091159;28;20211;-71
2022/01/13 02:56:02;;;;;;;171.35;43.38;;;5.50;99.90;;;;;;5095351;28;20210;-70
2022/01/13 02:58:30;;;;;;;166.25;45.42;;;5.50;99.90;;;;;;5089394;28;20294;-70
2022/01/13 03:00:58;;;;;;;152.05;44.55;;;5.50;99.90;;;;;;5086089;28;20224;-69
2022/01/13 03:03:24;;;;;;;138.65;41.67;;;5.50;99.90;;;;;;5088211;28;20203;-70
2022/01/13 03:05:51;;;;;;;138.02;44.80;;;5.50;99.90;;;;;;5092954;28;20199;-70
2022/01/13 03:08:20;;;;;;;140.32;39.05;;;5.50;99.90;;;;;;5088522;28;20285;-71
2022/01/13 03:10:47;;;;;;;146.20;43.70;;;5.50;99.90;;;;;;5093537;28;20250;-71
2022/01/13 03:13:14;;;;;;;134.20;38.72;;;5.50;99.90;;;;;;5088753;28;20191;-70
2022/01/13 03:15:40;;;;;;;137.27;41.13;;;5.50;99.90;;;;;;5093071;28;20541;-70
2022/01/13 03:18:07;;;;;;;154.15;43.78;;;5.50;99.90;;;;;;5083665;28;20286;-71
2022/01/13 03:20:34;;;;;;;122.85;40.83;;;5.50;99.90;;;;;;5092790;28;20293;-70
2022/01/13 03:23:04;;;;;;;137.73;43.30;;;5.50;99.90;;;;;;5088434;28;20687;-70
2022/01/13 03:25:32;;;;;;;155.20;46.25;;;5.50;99.90;;;;;;5095320;28;20206;-71
2022/01/13 03:28:05;;;;;;;152.48;46.63;;;5.50;99.90;;;;;;5092596;28;20203;-71
2022/01/13 03:30:32;;;;;;;150.70;45.63;;;5.50;99.90;;;;;;5086987;28;20234;-70
2022/01/13 03:33:00;;;;;;;146.77;43.83;;;5.50;99.90;;;;;;5091605;28;20195;-71
2022/01/13 03:35:28;;;;;;;136.57;41.00;;;5.50;99.90;;;;;;5085451;28;20195;-71
2022/01/13 03:37:55;;;;;;;118.60;37.33;;;5.50;99.90;;;;;;5089725;28;20200;-71
2022/01/13 03:40:22;;;;;;;206.75;49.80;;;5.60;99.90;;;;;;5089986;28;20573;-71
2022/01/13 03:42:53;;;;;;;137.60;43.03;;;5.50;99.90;;;;;;5093361;28;20317;-70
2022/01/13 03:45:20;;;;;;;156.98;44.67;;;5.50;99.90;;;;;;5093459;28;20660;-71
2022/01/13 03:47:46;;;;;;;139.73;42.83;;;5.50;99.90;;;;;;5101356;28;20189;-71
2022/01/13 03:50:14;;;;;;;166.48;47.67;;;5.50;99.90;;;;;;5100699;28;20208;-71
2022/01/13 03:53:18;;;;;;;140.52;40.60;;;5.50;99.90;;;;;;5094467;28;20253;-70
2022/01/13 03:56:27;;;;;;;144.38;41.22;;;5.50;99.90;;;;;;5086752;28;20728;-70
2022/01/13 03:59:47;;;;;;;155.63;40.63;;;5.50;99.90;;;;;;5083377;28;20625;-71
2022/01/13 04:02:14;;;;;;;153.45;44.88;;;5.50;99.90;;;;;;5087966;28;20318;-71
2022/01/13 04:04:42;;;;;;;145.10;44.45;;;5.50;99.90;;;;;;5094064;28;20198;-70
2022/01/13 04:07:16;;;;;;;137.77;43.72;;;5.50;99.90;;;;;;5094478;28;20281;-70
2022/01/13 04:10:28;;;;;;;137.45;42.45;;;5.40;99.90;;;;;;5090339;28;20203;-70
2022/01/13 04:12:56;;;;;;;148.25;45.90;;;5.60;99.90;;;;;;5093325;28;20238;-70
2022/01/13 04:15:28;;;;;;;125.78;39.60;;;5.60;99.90;;;;;;5085774;28;20231;-70
2022/01/13 04:17:56;;;;;;;137.18;41.65;;;5.60;99.90;;;;;;5087088;28;20240;-70
2022/01/13 04:20:23;;;;;;;135.15;40.55;;;5.60;99.90;;;;;;5086342;28;20286;-70
2022/01/13 04:22:51;;;;;;;128.63;41.58;;;5.70;99.90;;;;;;5090060;28;20215;-70
2022/01/13 04:25:22;;;;;;;108.45;39.15;;;5.60;99.90;;;;;;5093288;28;20283;-70
2022/01/13 04:27:50;;;;;;;127.80;37.97;;;5.60;99.90;;;;;;5083643;28;20202;-70
2022/01/13 04:33:07;;;;;;;121.50;41.40;;;5.60;99.90;;;;;;5087994;28;20198;-70
2022/01/13 04:35:34;;;;;;;129.57;41.88;;;5.60;99.90;;;;;;5084281;28;20690;-70
2022/01/13 04:38:01;;;;;;;148.18;41.78;;;5.50;99.90;;;;;;5087664;28;20307;-70
2022/01/13 04:40:28;;;;;;;150.18;42.83;;;5.60;99.90;;;;;;5091671;28;20199;-70
2022/01/13 04:42:56;;;;;;;141.30;44.40;;;5.60;99.90;;;;;;5093837;28;20640;-69
2022/01/13 04:45:25;;;;;;;120.88;41.03;;;5.60;99.90;;;;;;5088626;28;20237;-69
2022/01/13 04:47:53;;;;;;;132.43;41.67;;;5.50;99.90;;;;;;5093416;28;20286;-70
2022/01/13 04:50:23;;;;;;;119.15;38.33;;;5.60;99.90;;;;;;5084489;28;20209;-70
2022/01/13 04:52:51;;;;;;;129.20;39.42;;;5.60;99.90;;;;;;5092565;28;20240;-70
2022/01/13 04:55:23;;;;;;;132.15;38.88;;;5.70;99.90;;;;;;5093548;28;20298;-70
2022/01/13 04:57:50;;;;;;;131.38;39.70;;;5.60;99.90;;;;;;5091410;28;20277;-70
2022/01/13 05:00:17;;;;;;;132.05;41.92;;;5.60;99.90;;;;;;5088314;28;20554;-71
2022/01/13 05:02:45;;;;;;;143.60;41.80;;;5.50;99.90;;;;;;5089507;28;20310;-72
2022/01/13 05:05:13;;;;;;;124.80;40.85;;;5.60;99.90;;;;;;5088496;28;20281;-70
2022/01/13 05:07:41;;;;;;;136.13;42.22;;;5.60;99.90;;;;;;5087034;28;20247;-70
2022/01/13 05:10:09;;;;;;;144.02;46.05;;;5.60;99.90;;;;;;5088425;28;20205;-71
2022/01/13 05:12:41;;;;;;;145.18;43.35;;;5.50;99.90;;;;;;5083737;28;20222;-70
2022/01/13 05:15:10;;;;;;;160.73;48.08;;;5.50;99.90;;;;;;5087977;28;20202;-70
2022/01/13 05:20:37;;;;;;;133.80;41.60;;;5.50;99.90;;;;;;5070917;28;20209;-70
2022/01/13 05:23:07;;;;;;;127.10;41.92;;;5.50;99.90;;;;;;5074420;28;20686;-70
2022/01/13 05:25:34;;;;;;;118.63;39.65;;;5.50;99.90;;;;;;5092372;28;20229;-70
2022/01/13 05:28:01;;;;;;;129.38;43.60;;;5.50;99.90;;;;;;5089227;28;20194;-71
2022/01/13 05:30:28;;;;;;;115.57;40.05;;;5.50;99.90;;;;;;5091822;28;20245;-70
2022/01/13 05:32:56;;;;;;;118.38;42.25;;;5.60;99.90;;;;;;5087684;28;20191;-70
2022/01/13 05:35:25;;;;;;;160.98;48.08;;;5.50;99.90;;;;;;5092316;28;20211;-70
2022/01/13 05:37:53;;;;;;;129.00;38.85;;;5.50;99.90;;;;;;5092987;28;20199;-72
2022/01/13 05:40:23;;;;;;;139.60;43.58;;;5.50;99.90;;;;;;5083136;28;20559;-70
2022/01/13 05:42:50;;;;;;;145.48;46.28;;;5.50;99.90;;;;;;5091928;28;20294;-70
2022/01/13 05:45:19;;;;;;;123.40;40.05;;;5.50;99.90;;;;;;5086623;28;20234;-71
2022/01/13 05:47:47;;;;;;;164.07;45.33;;;5.50;99.90;;;;;;5083462;28;20657;-71
2022/01/13 05:50:17;;;;;;;160.30;44.67;;;5.50;99.90;;;;;;5085272;28;20215;-70
2022/01/13 05:52:44;;;;;;;142.68;40.42;;;5.50;99.90;;;;;;5076839;28;20300;-70
2022/01/13 05:55:11;;;;;;;126.18;38.22;;;5.50;99.90;;;;;;5088832;28;20281;-71
2022/01/13 05:57:40;;;;;;;147.65;42.00;;;5.50;99.90;;;;;;5083787;28;20198;-70
2022/01/13 06:00:09;;;;;;;137.85;42.65;;;5.50;99.90;;;;;;5086507;28;20285;-70
2022/01/13 06:02:37;;;;;;;116.60;39.67;;;5.50;99.90;;;;;;5090957;28;20309;-70
2022/01/13 06:05:05;;;;;;;132.88;39.47;;;5.50;99.90;;;;;;5085089;28;20314;-70
2022/01/13 06:07:32;;;;;;;126.72;41.22;;;5.50;99.90;;;;;;5082858;28;20289;-73
2022/01/13 06:09:58;;;;;;;134.43;40.60;;;5.50;99.90;;;;;;5086264;28;20204;-72
2022/01/13 06:12:32;;;;;;;137.35;40.83;;;5.50;99.90;;;;;;5089926;28;20218;-71
2022/01/13 06:15:02;;;;;;;131.73;41.15;;;5.50;99.90;;;;;;5085308;28;20202;-71
2022/01/13 06:17:29;;;;;;;106.30;37.70;;;5.60;99.90;;;;;;5086221;28;20294;-71
2022/01/13 06:19:58;;;;;;;117.45;36.38;;;5.60;99.90;;;;;;5076750;28;20198;-70
2022/01/13 06:22:25;;;;;;;116.95;41.10;;;5.50;99.90;;;;;;5084507;28;20223;-71
2022/01/13 06:24:53;;;;;;;164.85;45.08;;;5.60;99.90;;;;;;5082406;28;20199;-71
2022/01/13 06:27:22;;;;;;;161.63;42.28;;;5.60;99.90;;;;;;5084069;28;20198;-71
2022/01/13 06:29:50;;;;;;;140.98;39.92;;;5.50;99.90;;;;;;5084747;28;20202;-72
2022/01/13 06:32:20;;;;;;;160.95;45.25;;;5.50;99.90;;;;;;5092204;28;20293;-72
2022/01/13 06:34:47;;;;;;;121.57;36.38;;;5.50;99.90;;;;;;5091961;28;20287;-72
2022/01/13 06:37:13;;;;;;;130.05;41.03;;;5.50;99.90;;;;;;5091553;28;20340;-72
2022/01/13 06:39:40;;;;;;;136.00;40.10;;;5.50;99.90;;;;;;5090971;28;20209;-72
2022/01/13 06:42:08;;;;;;;142.05;40.42;;;5.60;99.90;;;;;;5089660;28;20380;-72
2022/01/13 06:44:36;;;;;;;111.05;38.10;;;5.50;99.90;;;;;;5094868;28;20205;-72
2022/01/13 06:47:04;;;;;;;114.80;38.13;;;5.50;99.90;;;;;;5095704;28;20204;-71
2022/01/13 06:49:33;;;;;;;144.65;43.28;;;5.60;99.90;;;;;;5093640;28;20217;-71
2022/01/13 06:52:00;;;;;;;120.45;38.97;;;5.50;99.90;;;;;;5091336;28;20250;-72
2022/01/13 06:54:27;;;;;;;141.15;39.17;;;5.60;99.90;;;;;;5093202;28;20269;-72
2022/01/13 06:56:54;;;;;;;125.18;40.20;;;5.60;99.90;;;;;;5088896;28;20293;-71
2022/01/13 06:59:21;;;;;;;106.43;41.00;;;5.60;99.90;;;;;;5091059;28;20202;-72
2022/01/13 07:01:50;;;;;;;103.25;39.67;;;5.60;99.90;;;;;;5084554;28;20218;-71
2022/01/13 07:04:18;;;;;;;110.53;36.67;;;5.60;99.90;;;;;;5094700;28;20267;-72
2022/01/13 07:06:47;;;;;;;125.70;38.08;;;5.60;99.90;;;;;;5087268;28;20281;-71
2022/01/13 07:09:15;;;;;;;104.43;36.08;;;5.60;99.90;;;;;;5094848;28;20252;-70
2022/01/13 07:11:42;;;;;;;100.32;34.70;;;5.60;99.90;;;;;;5087647;28;20249;-71
2022/01/13 07:14:10;;;;;;;106.18;38.25;;;5.60;99.90;;;;;;5078960;28;20283;-71
2022/01/13 07:16:37;;;;;;;114.60;36.90;;;5.60;99.90;;;;;;5094172;28;20249;-70
2022/01/13 07:19:05;;;;;;;86.93;35.42;;;5.60;99.90;;;;;;5095188;28;20576;-73
2022/01/13 07:21:32;;;;;;;103.82;31.77;;;5.60;99.90;;;;;;5086113;28;20226;-73
2022/01/13 07:24:00;;;;;;;90.78;34.85;;;5.60;99.90;;;;;;5088091;28;20680;-72
2022/01/13 07:26:28;;;;;;;97.07;31.13;;;5.70;99.90;;;;;;5093048;28;20248;-73
2022/01/13 07:28:55;;;;;;;100.63;33.83;;;5.70;99.90;;;;;;5091405;28;20714;-71
2022/01/13 07:31:22;;;;;;;93.63;35.10;;;5.70;99.90;;;;;;5090049;28;20565;-73
2022/01/13 07:33:50;;;;;;;88.05;31.30;;;5.70;99.90;;;;;;5081712;28;20205;-72
2022/01/13 07:36:17;;;;;;;108.60;35.92;;;5.70;99.90;;;;;;5081457;28;20697;-74
2022/01/13 07:38:44;;;;;;;92.47;31.83;;;5.70;99.90;;;;;;5086256;28;20221;-73
2022/01/13 07:41:12;;;;;;;83.80;32.28;;;5.70;99.90;;;;;;5090498;28;20225;-73
2022/01/13 07:43:42;;;;;;;71.05;30.05;;;5.70;99.90;;;;;;5093077;28;20291;-72
2022/01/13 07:46:09;;;;;;;89.63;28.77;;;5.70;99.90;;;;;;5086769;28;20203;-72
2022/01/13 07:48:36;;;;;;;84.63;30.05;;;5.80;99.90;;;;;;5087853;28;20671;-72
2022/01/13 07:51:03;;;;;;;85.13;32.13;;;5.70;99.90;;;;;;5075962;28;20230;-72
2022/01/13 07:53:30;;;;;;;74.55;31.92;;;5.70;99.90;;;;;;5082408;28;20211;-71
2022/01/13 07:55:57;;;;;;;76.25;28.27;;;5.70;99.90;;;;;;5079967;28;20295;-72
2022/01/13 07:58:26;;;;;;;71.90;27.83;;;5.60;99.90;;;;;;5076569;28;20205;-70
2022/01/13 08:00:54;;;;;;;62.92;27.95;;;5.70;99.90;;;;;;5084064;28;20250;-73
2022/01/13 08:03:21;;;;;;;71.93;31.58;;;5.80;99.90;;;;;;5078332;28;20296;-72
2022/01/13 08:05:49;;;;;;;64.55;25.92;;;5.90;99.90;;;;;;5092346;28;20239;-71
2022/01/13 08:08:16;;;;;;;55.67;28.20;;;5.80;99.90;;;;;;5083799;28;20270;-72
2022/01/13 08:10:43;;;;;;;70.07;30.42;;;5.90;99.90;;;;;;5083504;28;20223;-72
2022/01/13 08:13:10;;;;;;;71.82;28.35;;;5.90;99.90;;;;;;5085892;28;20186;-72
2022/01/13 08:15:40;;;;;;;67.68;27.08;;;5.80;99.90;;;;;;5093600;28;20198;-70
2022/01/13 08:20:53;;;;;;;60.53;26.50;;;5.80;99.90;;;;;;5086174;28;20775;-72
2022/01/13 08:23:20;;;;;;;83.38;29.25;;;5.80;99.90;;;;;;5089352;28;20301;-71
2022/01/13 08:25:46;;;;;;;77.30;29.05;;;5.70;99.90;;;;;;5088365;28;20555;-71
2022/01/13 08:28:13;;;;;;;65.47;26.65;;;5.80;99.90;;;;;;5087540;28;20220;-71
2022/01/13 08:30:42;;;;;;;70.72;30.33;;;5.70;99.90;;;;;;5088424;28;20293;-71
2022/01/13 08:33:09;;;;;;;73.53;28.77;;;5.80;99.90;;;;;;5085006;28;20190;-71
2022/01/13 08:35:36;;;;;;;86.20;30.67;;;5.80;99.90;;;;;;5086982;28;20199;-71
2022/01/13 08:38:15;;;;;;;81.38;34.05;;;5.80;99.90;;;;;;5090696;28;20234;-71
2022/01/13 08:40:44;;;;;;;75.50;32.10;;;5.80;99.90;;;;;;5077495;28;20222;-73
2022/01/13 08:43:11;;;;;;;77.25;32.05;;;5.80;99.90;;;;;;5093126;28;20658;-73
2022/01/13 08:45:39;;;;;;;64.43;28.63;;;5.80;99.90;;;;;;5088832;28;20213;-71
2022/01/13 08:48:07;;;;;;;87.47;34.38;;;5.80;99.90;;;;;;5092654;28;20294;-71
2022/01/13 08:50:34;;;;;;;80.20;32.70;;;5.80;99.90;;;;;;5090747;28;20215;-72
2022/01/13 08:53:01;;;;;;;81.85;34.33;;;5.80;99.90;;;;;;5093135;28;20193;-72
2022/01/13 08:55:28;;;;;;;82.70;34.25;;;5.80;99.90;;;;;;5085903;28;20303;-72
2022/01/13 08:57:55;;;;;;;89.65;34.95;;;5.80;99.90;;;;;;5087958;28;20199;-72
2022/01/13 09:00:22;;;;;;;87.95;34.03;;;5.90;99.90;;;;;;5088649;28;20281;-72
2022/01/13 09:02:49;;;;;;;86.15;33.25;;;5.90;99.90;;;;;;5085107;28;20262;-72
2022/01/13 09:05:19;;;;;;;80.60;31.20;;;5.90;99.90;;;;;;5087015;28;20286;-71
2022/01/13 09:07:46;;;;;;;79.47;32.00;;;6.00;99.90;;;;;;5090922;28;20206;-72
2022/01/13 09:10:15;;;;;;;64.65;30.58;;;6.00;99.90;;;;;;5088602;28;20207;-72
2022/01/13 09:12:42;;;;;;;73.75;32.88;;;6.10;99.90;;;;;;5083482;28;20329;-71
2022/01/13 09:15:19;;;;;;;83.43;31.50;;;6.10;99.90;;;;;;5092421;28;20196;-72
2022/01/13 09:17:51;;;;;;;78.22;34.75;;;6.10;99.90;;;;;;5062201;28;20636;-72
2022/01/13 09:20:24;;;;;;;81.28;30.83;;;6.10;99.90;;;;;;5082477;28;20193;-72
2022/01/13 09:22:50;;;;;;;82.05;31.25;;;6.10;99.90;;;;;;5082479;28;20196;-72
2022/01/13 09:25:18;;;;;;;76.75;29.85;;;6.10;99.90;;;;;;5088990;28;20223;-73
2022/01/13 09:27:45;;;;;;;56.92;27.45;;;6.10;99.90;;;;;;5086150;28;20191;-73
2022/01/13 09:30:15;;;;;;;72.28;30.13;;;6.10;99.90;;;;;;5087006;28;20206;-73
2022/01/13 09:32:43;;;;;;;85.68;32.17;;;6.20;99.90;;;;;;5076192;28;20326;-72
2022/01/13 09:35:10;;;;;;;77.50;29.58;;;6.20;99.90;;;;;;5084649;28;20287;-72
2022/01/13 09:37:39;;;;;;;80.53;32.53;;;6.20;99.90;;;;;;5084750;28;20208;-72
2022/01/13 09:40:09;;;;;;;75.13;29.27;;;6.20;99.90;;;;;;5085430;28;20200;-73
2022/01/13 09:42:37;;;;;;;61.10;28.73;;;6.10;99.90;;;;;;5091381;28;20276;-72
2022/01/13 09:45:06;;;;;;;67.38;27.75;;;6.10;99.90;;;;;;5092628;28;20647;-72
2022/01/13 09:47:36;;;;;;;56.83;25.75;;;6.10;99.90;;;;;;5090797;28;20237;-73
2022/01/13 09:50:10;;;;;;;61.38;25.83;;;6.00;99.90;;;;;;5085375;28;20687;-72
2022/01/13 09:52:38;;;;;;;60.58;24.50;;;6.10;99.90;;;;;;5088546;28;20225;-72
2022/01/13 09:55:08;;;;;;;70.28;29.27;;;6.10;99.90;;;;;;5084891;28;20315;-73
2022/01/13 09:57:35;;;;;;;72.13;27.60;;;6.20;99.90;;;;;;5086686;28;20192;-72
2022/01/13 10:00:03;;;;;;;55.13;28.27;;;6.10;99.90;;;;;;5085733;28;20196;-72
2022/01/13 10:02:30;;;;;;;57.38;26.50;;;6.20;99.90;;;;;;5091458;28;20272;-72
2022/01/13 10:04:58;;;;;;;58.22;25.90;;;6.20;99.90;;;;;;5087054;28;20236;-72
2022/01/13 10:07:32;;;;;;;64.47;25.58;;;6.20;99.90;;;;;;5089140;28;20199;-72
2022/01/13 10:10:02;;;;;;;48.67;25.52;;;6.20;99.90;;;;;;5082590;28;20199;-71
2022/01/13 10:12:36;;;;;;;61.45;24.20;;;6.10;99.90;;;;;;5083270;28;20303;-73
2022/01/13 10:17:53;;;;;;;47.63;20.98;;;6.20;99.90;;;;;;5086118;28;20575;-72
2022/01/13 10:20:23;;;;;;;57.05;24.48;;;6.20;99.90;;;;;;5091621;28;20311;-73
2022/01/13 10:22:51;;;;;;;67.55;25.90;;;6.20;99.90;;;;;;5088199;28;20196;-73
2022/01/13 10:25:31;;;;;;;56.90;23.42;;;6.20;99.90;;;;;;5096003;28;20302;-72
2022/01/13 10:28:16;;;;;;;48.80;25.85;;;6.20;99.90;;;;;;5088982;28;20245;-71
2022/01/13 10:30:46;;;;;;;51.58;23.23;;;6.30;99.90;;;;;;5082727;28;20687;-74
2022/01/13 10:33:18;;;;;;;45.25;20.48;;;6.20;99.90;;;;;;5089419;28;20619;-73
2022/01/13 10:35:47;;;;;;;48.42;23.98;;;6.20;99.90;;;;;;5087536;28;20223;-73
2022/01/13 10:38:17;;;;;;;56.92;23.92;;;6.20;99.90;;;;;;5097548;28;20200;-72
2022/01/13 10:40:47;;;;;;;62.53;28.20;;;6.20;99.90;;;;;;5093297;28;20322;-77
2022/01/13 10:43:16;;;;;;;74.43;28.15;;;6.20;99.90;;;;;;5089333;28;20716;-70
2022/01/13 10:45:47;;;;;;;56.22;24.52;;;6.10;99.90;;;;;;5085469;28;20287;-73
2022/01/13 10:48:16;;;;;;;62.28;27.17;;;6.10;99.90;;;;;;5095712;28;20234;-74
2022/01/13 10:50:46;;;;;;;68.82;28.23;;;6.10;99.90;;;;;;5093664;28;20254;-74
2022/01/13 10:53:16;;;;;;;57.60;24.60;;;6.10;99.90;;;;;;5096194;28;20690;-74
2022/01/13 10:55:47;;;;;;;57.38;24.40;;;6.10;99.90;;;;;;5080352;28;20198;-73
2022/01/13 10:58:17;;;;;;;54.92;26.88;;;6.10;99.90;;;;;;5095953;28;20284;-72
2022/01/13 11:00:46;;;;;;;56.60;25.80;;;6.00;99.90;;;;;;5082041;28;20286;-73
2022/01/13 11:03:17;;;;;;;60.10;27.50;;;6.10;99.90;;;;;;5086636;28;20210;-73
2022/01/13 11:05:47;;;;;;;64.20;26.10;;;6.00;99.90;;;;;;5086939;28;20242;-72
2022/01/13 11:08:28;;;;;;;72.82;29.42;;;6.00;99.90;;;;;;5083802;28;20285;-73
2022/01/13 11:10:58;;;;;;;58.42;27.23;;;6.10;99.90;;;;;;5091014;28;20219;-73
2022/01/13 11:13:27;;;;;;;70.45;29.83;;;6.10;99.90;;;;;;5094642;28;20204;-73
2022/01/13 11:15:55;;;;;;;63.78;28.52;;;6.00;99.90;;;;;;5088550;28;20207;-76
2022/01/13 11:18:27;;;;;;;55.00;28.00;;;6.00;99.90;;;;;;5091543;28;20648;-73
2022/01/13 11:20:54;;;;;;;55.28;25.48;;;6.00;99.90;;;;;;5094783;28;20226;-73
2022/01/13 11:23:22;;;;;;;59.63;28.30;;;5.90;99.90;;;;;;5092449;28;20205;-74
2022/01/13 11:25:51;;;;;;;68.00;26.70;;;6.00;99.90;;;;;;5094672;28;20230;-73
2022/01/13 11:28:20;;;;;;;49.60;27.25;;;6.00;99.90;;;;;;5091346;28;20232;-73
2022/01/13 11:30:49;;;;;;;57.90;28.67;;;6.00;99.90;;;;;;5085630;28;20658;-73
2022/01/13 11:33:16;;;;;;;73.97;30.67;;;6.00;99.90;;;;;;5090049;28;20206;-73
2022/01/13 11:35:49;;;;;;;71.03;29.13;;;6.00;99.90;;;;;;5081432;28;20564;-72
2022/01/13 11:38:18;;;;;;;63.15;30.00;;;6.00;99.90;;;;;;5091059;28;20261;-73
2022/01/13 11:40:46;;;;;;;69.60;29.60;;;5.90;99.90;;;;;;5082673;28;20558;-73
2022/01/13 11:43:33;;;;;;;69.10;29.63;;;6.10;99.90;;;;;;5093343;28;20230;-73
2022/01/13 11:46:21;;;;;;;66.10;29.45;;;6.10;99.90;;;;;;5090536;28;20595;-74
2022/01/13 11:49:03;;;;;;;66.47;27.15;;;6.10;99.90;;;;;;5092361;28;20216;-75
2022/01/13 11:51:43;;;;;;;54.53;28.00;;;6.10;99.90;;;;;;5091714;28;20279;-74
2022/01/13 11:54:10;;;;;;;75.47;29.80;;;6.10;99.90;;;;;;5094138;28;20197;-73
2022/01/13 11:56:40;;;;;;;58.80;30.13;;;6.20;99.90;;;;;;5087285;28;20877;-73
2022/01/13 11:59:10;;;;;;;55.97;26.70;;;6.20;99.90;;;;;;5099658;28;20204;-73
2022/01/13 12:01:38;;;;;;;65.75;26.95;;;6.10;99.90;;;;;;5094943;28;20227;-72
2022/01/13 12:04:07;;;;;;;61.42;27.45;;;6.10;99.90;;;;;;5103352;28;20211;-73
2022/01/13 12:06:41;;;;;;;57.25;27.27;;;6.10;99.90;;;;;;5104903;28;20207;-73
2022/01/13 12:09:09;;;;;;;58.30;28.33;;;6.20;99.90;;;;;;5089933;28;20742;-73
2022/01/13 12:11:42;;;;;;;65.00;30.83;;;6.20;99.90;;;;;;5088541;28;20232;-74
2022/01/13 12:14:38;;;;;;;62.30;26.65;;;6.20;99.90;;;;;;5093327;28;20212;-73
2022/01/13 12:17:11;;;;;;;58.10;28.63;;;6.20;99.90;;;;;;5094578;28;20249;-74
2022/01/13 12:19:42;;;;;;;50.75;28.20;;;6.20;99.90;;;;;;5093423;28;20198;-71
2022/01/13 12:22:13;;;;;;;50.60;24.83;;;6.20;99.90;;;;;;5089435;28;20233;-72
2022/01/13 12:24:52;;;;;;;50.35;26.77;;;6.20;99.90;;;;;;5087080;28;20216;-73
2022/01/13 12:27:20;;;;;;;54.05;26.00;;;6.20;99.90;;;;;;5085952;28;20211;-72
2022/01/13 12:29:51;;;;;;;52.05;25.15;;;6.20;99.90;;;;;;5084786;28;20667;-73
2022/01/13 12:32:35;;;;;;;50.22;25.10;;;6.20;99.90;;;;;;5088420;28;20269;-72
2022/01/13 12:35:04;;;;;;;61.80;26.70;;;6.20;99.90;;;;;;5093587;28;20569;-73
2022/01/13 12:37:32;;;;;;;54.97;25.55;;;6.30;99.90;;;;;;5089191;28;20232;-74
2022/01/13 12:40:02;;;;;;;58.25;27.35;;;6.30;99.90;;;;;;5085407;28;20628;-73
2022/01/13 12:42:33;;;;;;;53.25;24.17;;;6.40;99.90;;;;;;5091785;28;20234;-73
2022/01/13 12:47:47;;;;;;;52.10;23.40;;;6.30;99.90;;;;;;5079282;28;20279;-74
2022/01/13 12:50:20;;;;;;;40.10;23.23;;;6.30;99.90;;;;;;5081021;28;20215;-74
2022/01/13 12:52:47;;;;;;;54.20;27.00;;;6.30;99.90;;;;;;5079645;28;20360;-74
2022/01/13 12:55:21;;;;;;;70.53;36.00;;;6.20;99.90;;;;;;5089148;28;20246;-74
2022/01/13 12:57:52;;;;;;;51.85;26.42;;;6.30;99.90;;;;;;5079159;28;20286;-74
2022/01/13 13:00:23;;;;;;;61.10;26.73;;;6.30;99.90;;;;;;5088143;28;20200;-74
2022/01/13 13:03:05;;;;;;;58.25;27.20;;;6.30;99.90;;;;;;5085690;28;20676;-74
2022/01/13 13:05:35;;;;;;;53.75;27.30;;;6.30;99.90;;;;;;5080419;28;20216;-73
2022/01/13 13:08:02;;;;;;;48.67;26.15;;;6.40;99.90;;;;;;5093353;28;20203;-72